createdAt,value
2023-02-17T00:00:19.003Z,97446.44
2023-02-17T00:02:20.545Z,97447.13
2023-02-17T00:04:22.097Z,97445.56
2023-02-17T00:06:27.099Z,97447.50
2023-02-17T00:08:28.645Z,97450.25
2023-02-17T00:10:30.109Z,97434.47
2023-02-17T00:12:31.696Z,97440.25
2023-02-17T00:14:33.234Z,97441.03
2023-02-17T00:16:34.805Z,97435.31
2023-02-17T00:18:37.065Z,97431.88
2023-02-17T00:20:38.603Z,97426.06
2023-02-17T00:22:40.159Z,97431.44
2023-02-17T00:24:42.034Z,97431.38
2023-02-17T00:26:44.454Z,97434.09
2023-02-17T00:28:47.323Z,97418.31
2023-02-17T00:30:49.213Z,97418.69
2023-02-17T00:33:00.403Z,97417.91
2023-02-17T00:35:02.021Z,97409.44
2023-02-17T00:37:03.789Z,97403.69
2023-02-17T00:39:07.564Z,97402.97
2023-02-17T00:41:09.760Z,97406.91
2023-02-17T00:43:11.296Z,97394.97
2023-02-17T00:45:12.836Z,97402.34
2023-02-17T00:47:14.375Z,97408.47
2023-02-17T00:49:25.623Z,97405.34
2023-02-17T00:51:27.390Z,97405.00
2023-02-17T00:53:29.854Z,97403.81
2023-02-17T00:55:31.646Z,97407.69
2023-02-17T00:57:33.229Z,97400.00
2023-02-17T00:59:35.940Z,97411.16
2023-02-17T01:01:38.398Z,97407.69
2023-02-17T01:03:42.132Z,97401.97
2023-02-17T01:05:46.412Z,97403.50
2023-02-17T01:07:49.579Z,97404.63
2023-02-17T01:09:51.156Z,97396.59
2023-02-17T01:11:52.656Z,97411.56
2023-02-17T01:13:55.547Z,97406.97
2023-02-17T01:15:57.231Z,97401.53
2023-02-17T01:17:59.506Z,97401.97
2023-02-17T01:20:02.211Z,97402.75
2023-02-17T01:22:04.129Z,97405.81
2023-02-17T01:24:07.573Z,97402.34
2023-02-17T01:26:15.841Z,97398.19
2023-02-17T01:28:21.157Z,97401.22
2023-02-17T01:30:23.363Z,97410.78
2023-02-17T01:32:24.889Z,97398.91
2023-02-17T01:34:26.792Z,97401.56
2023-02-17T01:36:28.748Z,97390.44
2023-02-17T01:38:30.292Z,97391.25
2023-02-17T01:40:31.838Z,97375.47
2023-02-17T01:42:33.366Z,97375.78
2023-02-17T01:44:34.949Z,97379.66
2023-02-17T01:46:37.374Z,97373.06
2023-02-17T01:48:48.904Z,97372.38
2023-02-17T01:51:01.104Z,97373.09
2023-02-17T01:53:05.139Z,97374.25
2023-02-17T01:55:11.013Z,97375.47
2023-02-17T01:57:16.707Z,97372.75
2023-02-17T01:59:22.253Z,97378.19
2023-02-17T02:01:23.944Z,97369.66
2023-02-17T02:03:27.694Z,97372.31
2023-02-17T02:05:29.434Z,97368.47
2023-02-17T02:07:38.838Z,97356.22
2023-02-17T02:09:46.524Z,97359.88
2023-02-17T02:11:50.577Z,97361.41
2023-02-17T02:13:52.260Z,97344.13
2023-02-17T02:16:04.244Z,97344.84
2023-02-17T02:18:14.932Z,97339.13
2023-02-17T02:20:37.459Z,97336.84
2023-02-17T02:23:09.965Z,97334.19
2023-02-17T02:25:44.622Z,97329.28
2023-02-17T02:28:23.547Z,97322.28
2023-02-17T02:30:43.610Z,97321.47
2023-02-17T02:33:02.859Z,97319.91
2023-02-17T02:35:12.608Z,97315.75
2023-02-17T02:37:18.145Z,97317.63
2023-02-17T02:39:23.615Z,97307.69
2023-02-17T02:41:33.022Z,97312.25
2023-02-17T02:43:34.871Z,97305.66
2023-02-17T02:45:36.431Z,97301.09
2023-02-17T02:47:50.593Z,97310.72
2023-02-17T02:49:56.530Z,97308.44
2023-02-17T02:52:43.718Z,97309.63
2023-02-17T02:55:10.034Z,97304.25
2023-02-17T02:57:31.912Z,97289.66
2023-02-17T02:59:59.264Z,97285.06
2023-02-17T03:02:29.478Z,97280.72
2023-02-17T03:04:48.057Z,97273.88
2023-02-17T03:06:59.070Z,97283.88
2023-02-17T03:09:06.492Z,97282.75
2023-02-17T03:11:08.082Z,97276.97
2023-02-17T03:13:10.620Z,97285.84
2023-02-17T03:15:19.094Z,97278.50
2023-02-17T03:17:20.651Z,97285.03
2023-02-17T03:19:25.338Z,97280.03
2023-02-17T03:21:33.745Z,97272.75
2023-02-17T03:23:35.743Z,97273.09
2023-02-17T03:25:37.420Z,97260.84
2023-02-17T03:27:39.176Z,97260.06
2023-02-17T03:29:41.127Z,97255.47
2023-02-17T03:31:42.962Z,97246.25
2023-02-17T03:33:44.609Z,97248.94
2023-02-17T03:35:46.366Z,97250.50
2023-02-17T03:37:47.904Z,97256.97
2023-02-17T03:39:49.420Z,97255.44
2023-02-17T03:41:51.641Z,97252.03
2023-02-17T03:43:53.151Z,97252.69
2023-02-17T03:45:54.707Z,97243.88
2023-02-17T03:47:56.283Z,97254.66
2023-02-17T03:49:58.596Z,97255.47
2023-02-17T03:52:00.230Z,97254.31
2023-02-17T03:54:02.047Z,97252.44
2023-02-17T03:56:03.897Z,97255.50
2023-02-17T03:58:05.572Z,97261.25
2023-02-17T04:00:07.739Z,97253.56
2023-02-17T04:02:14.513Z,97253.19
2023-02-17T04:04:16.341Z,97262.81
2023-02-17T04:06:18.337Z,97266.28
2023-02-17T04:08:21.067Z,97275.09
2023-02-17T04:10:22.491Z,97273.97
2023-02-17T04:12:23.956Z,97275.13
2023-02-17T04:14:26.497Z,97277.78
2023-02-17T04:16:29.270Z,97277.78
2023-02-17T04:18:32.178Z,97275.47
2023-02-17T04:20:33.728Z,97275.50
2023-02-17T04:22:35.197Z,97281.66
2023-02-17T04:24:37.181Z,97271.66
2023-02-17T04:26:38.714Z,97272.81
2023-02-17T04:28:42.209Z,97274.34
2023-02-17T04:30:46.557Z,97272.03
2023-02-17T04:32:48.065Z,97279.34
2023-02-17T04:34:49.579Z,97271.63
2023-02-17T04:36:51.208Z,97274.72
2023-02-17T04:38:53.035Z,97282.41
2023-02-17T04:40:55.944Z,97275.09
2023-02-17T04:42:57.451Z,97275.47
2023-02-17T04:44:59.503Z,97271.63
2023-02-17T04:47:01.048Z,97274.69
2023-02-17T04:49:02.736Z,97270.06
2023-02-17T04:51:05.310Z,97275.88
2023-02-17T04:53:06.966Z,97270.09
2023-02-17T04:55:08.909Z,97269.34
2023-02-17T04:57:10.758Z,97263.16
2023-02-17T04:59:12.266Z,97278.19
2023-02-17T05:01:13.934Z,97272.78
2023-02-17T05:03:16.308Z,97280.09
2023-02-17T05:05:19.026Z,97272.41
2023-02-17T05:07:21.082Z,97267.78
2023-02-17T05:09:22.571Z,97287.00
2023-02-17T05:11:24.317Z,97260.88
2023-02-17T05:13:27.372Z,97271.66
2023-02-17T05:15:28.933Z,97263.56
2023-02-17T05:17:30.520Z,97248.94
2023-02-17T05:19:32.009Z,97257.84
2023-02-17T05:21:33.536Z,97251.66
2023-02-17T05:23:40.908Z,97261.28
2023-02-17T05:25:42.683Z,97257.03
2023-02-17T05:27:44.222Z,97257.44
2023-02-17T05:29:46.717Z,97265.50
2023-02-17T05:31:48.758Z,97265.47
2023-02-17T05:33:50.388Z,97263.97
2023-02-17T05:35:52.001Z,97261.66
2023-02-17T05:37:53.500Z,97254.75
2023-02-17T05:39:55.076Z,97253.94
2023-02-17T05:41:57.090Z,97258.94
2023-02-17T05:43:58.678Z,97251.66
2023-02-17T05:46:04.181Z,97260.88
2023-02-17T05:48:05.835Z,97255.50
2023-02-17T05:50:08.464Z,97247.41
2023-02-17T05:52:10.886Z,97250.50
2023-02-17T05:54:12.556Z,97248.56
2023-02-17T05:56:14.132Z,97253.94
2023-02-17T05:58:15.741Z,97263.94
2023-02-17T06:00:17.452Z,97265.50
2023-02-17T06:02:19.158Z,97262.81
2023-02-17T06:04:20.727Z,97260.53
2023-02-17T06:06:22.222Z,97269.72
2023-02-17T06:08:23.794Z,97268.56
2023-02-17T06:10:25.340Z,97265.88
2023-02-17T06:12:26.869Z,97273.19
2023-02-17T06:14:28.448Z,97270.88
2023-02-17T06:16:30.671Z,97277.78
2023-02-17T06:18:32.260Z,97266.28
2023-02-17T06:20:33.758Z,97266.28
2023-02-17T06:22:35.317Z,97273.56
2023-02-17T06:24:37.205Z,97273.19
2023-02-17T06:26:38.703Z,97275.50
2023-02-17T06:28:40.215Z,97272.06
2023-02-17T06:30:42.029Z,97268.59
2023-02-17T06:32:43.996Z,97261.66
2023-02-17T06:34:45.810Z,97260.50
2023-02-17T06:36:47.425Z,97249.38
2023-02-17T06:38:49.220Z,97254.75
2023-02-17T06:40:50.845Z,97247.06
2023-02-17T06:42:52.594Z,97245.50
2023-02-17T06:44:54.055Z,97253.56
2023-02-17T06:46:56.521Z,97258.59
2023-02-17T06:48:59.975Z,97255.50
2023-02-17T06:51:01.565Z,97262.81
2023-02-17T06:53:03.330Z,97264.00
2023-02-17T06:55:05.372Z,97266.69
2023-02-17T06:57:07.151Z,97268.97
2023-02-17T06:59:08.970Z,97271.69
2023-02-17T07:01:22.989Z,97289.00
2023-02-17T07:03:24.538Z,97293.22
2023-02-17T07:05:26.624Z,97279.34
2023-02-17T07:07:28.497Z,97274.00
2023-02-17T07:09:30.333Z,97283.22
2023-02-17T07:11:32.810Z,97301.31
2023-02-17T07:13:34.772Z,97283.22
2023-02-17T07:15:36.355Z,97303.19
2023-02-17T07:17:37.878Z,97303.22
2023-02-17T07:19:39.795Z,97318.63
2023-02-17T07:21:41.355Z,97310.53
2023-02-17T07:23:42.908Z,97290.53
2023-02-17T07:25:44.516Z,97291.69
2023-02-17T07:27:46.049Z,97293.22
2023-02-17T07:29:47.812Z,97306.28
2023-02-17T07:31:49.665Z,97299.00
2023-02-17T07:33:51.326Z,97297.06
2023-02-17T07:35:53.895Z,97301.31
2023-02-17T07:37:57.425Z,97297.84
2023-02-17T07:39:58.910Z,97301.69
2023-02-17T07:42:01.108Z,97296.34
2023-02-17T07:44:03.245Z,97297.91
2023-02-17T07:46:06.680Z,97304.81
2023-02-17T07:48:08.554Z,97297.13
2023-02-17T07:50:10.596Z,97302.84
2023-02-17T07:52:12.319Z,97305.53
2023-02-17T07:54:14.046Z,97298.66
2023-02-17T07:56:17.776Z,97319.84
2023-02-17T07:58:19.296Z,97309.03
2023-02-17T08:00:21.092Z,97321.69
2023-02-17T08:02:22.904Z,97311.75
2023-02-17T08:04:25.197Z,97294.44
2023-02-17T08:06:27.442Z,97293.25
2023-02-17T08:08:48.143Z,97300.19
2023-02-17T08:11:08.645Z,97303.66
2023-02-17T08:13:19.928Z,97312.91
2023-02-17T08:15:21.523Z,97309.41
2023-02-17T08:17:23.276Z,97319.44
2023-02-17T08:19:27.221Z,97305.56
2023-02-17T08:21:31.723Z,97302.13
2023-02-17T08:23:35.187Z,97304.06
2023-02-17T08:25:37.207Z,97311.75
2023-02-17T08:27:38.740Z,97311.75
2023-02-17T08:29:41.190Z,97323.69
2023-02-17T08:31:43.229Z,97305.19
2023-02-17T08:33:44.961Z,97313.66
2023-02-17T08:35:46.766Z,97314.44
2023-02-17T08:37:49.582Z,97313.28
2023-02-17T08:39:51.080Z,97315.97
2023-02-17T08:41:53.057Z,97322.53
2023-02-17T08:43:56.224Z,97322.53
2023-02-17T08:45:57.709Z,97317.91
2023-02-17T08:47:59.331Z,97327.53
2023-02-17T08:50:01.158Z,97323.31
2023-02-17T08:52:03.347Z,97315.97
2023-02-17T08:54:06.876Z,97309.81
2023-02-17T08:56:08.756Z,97300.59
2023-02-17T08:58:10.495Z,97309.06
2023-02-17T09:00:13.263Z,97308.28
2023-02-17T09:02:16.366Z,97304.81
2023-02-17T09:04:18.118Z,97310.56
2023-02-17T09:06:21.197Z,97307.88
2023-02-17T09:08:23.277Z,97306.75
2023-02-17T09:10:24.855Z,97299.03
2023-02-17T09:12:26.388Z,97319.47
2023-02-17T09:14:27.971Z,97317.91
2023-02-17T09:16:30.799Z,97302.13
2023-02-17T09:18:32.499Z,97307.88
2023-02-17T09:20:34.139Z,97313.69
2023-02-17T09:22:36.213Z,97309.06
2023-02-17T09:24:39.926Z,97312.50
2023-02-17T09:26:42.222Z,97309.81
2023-02-17T09:28:45.644Z,97299.41
2023-02-17T09:30:47.614Z,97301.72
2023-02-17T09:32:49.276Z,97318.66
2023-02-17T09:34:50.861Z,97317.53
2023-02-17T09:36:52.449Z,97304.81
2023-02-17T09:38:54.455Z,97319.06
2023-02-17T09:41:02.628Z,97301.38
2023-02-17T09:43:04.212Z,97305.59
2023-02-17T09:45:12.919Z,97331.00
2023-02-17T09:47:20.104Z,97317.13
2023-02-17T09:49:26.575Z,97305.59
2023-02-17T09:51:39.146Z,97304.06
2023-02-17T09:54:18.340Z,97310.22
2023-02-17T09:56:32.585Z,97319.44
2023-02-17T09:58:51.537Z,97326.75
2023-02-17T10:01:02.625Z,97332.91
2023-02-17T10:03:26.460Z,97329.47
2023-02-17T10:05:34.962Z,97329.47
2023-02-17T10:07:41.861Z,97328.31
2023-02-17T10:10:04.510Z,97327.91
2023-02-17T10:12:10.919Z,97333.31
2023-02-17T10:14:18.284Z,97324.44
2023-02-17T10:16:53.335Z,97325.22
2023-02-17T10:19:15.162Z,97332.53
2023-02-17T10:21:22.120Z,97335.63
2023-02-17T10:23:26.735Z,97327.53
2023-02-17T10:25:50.805Z,97326.38
2023-02-17T10:28:02.537Z,97326.38
2023-02-17T10:30:27.065Z,97337.13
2023-02-17T10:32:30.314Z,97327.94
2023-02-17T10:34:50.674Z,97334.09
2023-02-17T10:37:14.052Z,97344.47
2023-02-17T10:39:34.526Z,97336.78
2023-02-17T10:41:39.989Z,97340.25
2023-02-17T10:43:43.980Z,97335.22
2023-02-17T10:45:49.750Z,97342.16
2023-02-17T10:47:59.151Z,97328.28
2023-02-17T10:50:01.393Z,97342.16
2023-02-17T10:52:13.350Z,97341.00
2023-02-17T10:54:38.859Z,97334.06
2023-02-17T10:56:47.104Z,97325.22
2023-02-17T10:59:06.383Z,97335.97
2023-02-17T11:01:08.496Z,97342.16
2023-02-17T11:03:21.859Z,97330.97
2023-02-17T11:05:33.515Z,97323.66
2023-02-17T11:07:41.121Z,97335.63
2023-02-17T11:09:58.395Z,97322.13
2023-02-17T11:12:03.520Z,97322.91
2023-02-17T11:14:19.185Z,97312.13
2023-02-17T11:16:44.183Z,97310.56
2023-02-17T11:18:48.745Z,97312.88
2023-02-17T11:20:50.414Z,97298.63
2023-02-17T11:25:38.486Z,97300.94
2023-02-17T11:27:40.198Z,97304.75
2023-02-17T11:29:42.029Z,97311.34
2023-02-17T11:37:48.711Z,97296.69
2023-02-17T11:40:29.064Z,97306.34
2023-02-17T11:42:59.296Z,97305.56
2023-02-17T11:45:23.089Z,97291.66
2023-02-17T11:56:56.271Z,97300.09
2023-02-17T11:59:53.509Z,97298.19
2023-02-17T12:02:58.374Z,97276.94
2023-02-17T12:05:35.308Z,97271.16
2023-02-17T12:08:30.743Z,97283.84
2023-02-17T12:11:08.010Z,97258.34
2023-02-17T12:14:01.421Z,97264.09
2023-02-17T12:16:59.369Z,97269.06
2023-02-17T12:19:24.319Z,97271.72
2023-02-17T12:22:01.659Z,97267.13
2023-02-17T12:24:34.361Z,97263.31
2023-02-17T12:27:11.890Z,97274.44
2023-02-17T12:29:52.547Z,97274.50
2023-02-17T12:32:29.048Z,97264.06
2023-02-17T12:34:55.624Z,97267.16
2023-02-17T12:37:21.079Z,97266.38
2023-02-17T12:39:52.327Z,97250.97
2023-02-17T12:42:21.909Z,97252.09
2023-02-17T12:44:56.342Z,97254.00
2023-02-17T12:47:55.098Z,97255.88
2023-02-17T12:50:27.019Z,97240.50
2023-02-17T12:52:54.702Z,97240.84
2023-02-17T12:55:22.097Z,97248.97
2023-02-17T12:58:03.797Z,97237.34
2023-02-17T13:00:40.705Z,97228.97
2023-02-17T13:03:04.097Z,97242.09
2023-02-17T13:05:34.067Z,97226.16
2023-02-17T13:08:18.826Z,97244.63
2023-02-17T13:10:41.394Z,97223.38
2023-02-17T13:13:14.534Z,97226.63
2023-02-17T13:15:43.005Z,97230.41
2023-02-17T13:18:11.294Z,97214.94
2023-02-17T13:20:57.858Z,97218.03
2023-02-17T13:23:34.921Z,97206.88
2023-02-17T13:26:07.453Z,97216.06
2023-02-17T13:28:37.627Z,97217.22
2023-02-17T13:31:09.744Z,97221.03
2023-02-17T13:33:31.688Z,97207.88
2023-02-17T13:35:53.807Z,97222.19
2023-02-17T13:38:30.277Z,97234.91
2023-02-17T13:40:52.509Z,97222.53
2023-02-17T13:43:16.803Z,97223.34
2023-02-17T13:45:43.266Z,97222.94
2023-02-17T13:52:25.987Z,97211.72
2023-02-17T13:54:56.331Z,97211.75
2023-02-17T13:57:29.611Z,97211.44
2023-02-17T13:59:51.864Z,97204.75
2023-02-17T14:02:35.551Z,97212.84
2023-02-17T14:05:00.595Z,97211.72
2023-02-17T14:07:22.760Z,97205.97
2023-02-17T14:09:55.110Z,97213.31
2023-02-17T14:12:24.259Z,97226.31
2023-02-17T14:14:46.180Z,97241.00
2023-02-17T14:17:16.998Z,97225.63
2023-02-17T14:19:19.363Z,97217.09
2023-02-17T14:21:26.756Z,97218.59
2023-02-17T14:23:28.365Z,97217.53
2023-02-17T14:25:32.099Z,97197.78
2023-02-17T14:27:44.791Z,97200.94
2023-02-17T14:29:50.143Z,97197.72
2023-02-17T14:31:53.249Z,97210.13
2023-02-17T14:34:00.732Z,97193.94
2023-02-17T14:36:06.783Z,97197.41
2023-02-17T14:38:20.099Z,97198.97
2023-02-17T14:40:23.919Z,97213.28
2023-02-17T14:42:25.426Z,97185.84
2023-02-17T14:44:26.914Z,97190.09
2023-02-17T14:46:28.475Z,97191.69
2023-02-17T14:48:30.006Z,97174.25
2023-02-17T14:50:33.430Z,97189.66
2023-02-17T14:52:44.072Z,97187.00
2023-02-17T14:54:45.975Z,97185.78
2023-02-17T14:57:02.277Z,97189.31
2023-02-17T14:59:04.510Z,97189.28
2023-02-17T15:01:05.994Z,97177.28
2023-02-17T15:03:07.480Z,97179.63
2023-02-17T15:05:09.175Z,97166.56
2023-02-17T15:07:16.236Z,97176.19
2023-02-17T15:09:23.636Z,97173.91
2023-02-17T15:11:37.398Z,97181.22
2023-02-17T15:13:38.948Z,97178.13
2023-02-17T15:15:44.365Z,97182.28
2023-02-17T15:17:46.203Z,97194.25
2023-02-17T15:19:49.175Z,97188.31
2023-02-17T15:21:52.132Z,97190.03
2023-02-17T15:23:54.527Z,97195.44
2023-02-17T15:25:56.465Z,97196.59
2023-02-17T15:27:58.243Z,97188.75
2023-02-17T15:29:59.855Z,97204.97
2023-02-17T15:32:04.855Z,97198.09
2023-02-17T15:34:13.062Z,97208.22
2023-02-17T15:36:17.147Z,97196.25
2023-02-17T15:38:19.428Z,97195.44
2023-02-17T15:40:24.097Z,97193.94
2023-02-17T15:42:26.095Z,97197.78
2023-02-17T15:44:39.650Z,97197.03
2023-02-17T15:46:42.163Z,97194.28
2023-02-17T15:48:45.582Z,97193.44
2023-02-17T15:50:47.102Z,97199.00
2023-02-17T15:52:50.504Z,97190.50
2023-02-17T15:54:53.693Z,97185.75
2023-02-17T15:56:55.252Z,97172.59
2023-02-17T15:59:00.518Z,97179.88
2023-02-17T16:01:03.880Z,97171.81
2023-02-17T16:03:06.272Z,97193.88
2023-02-17T16:05:12.094Z,97195.69
2023-02-17T16:07:14.239Z,97180.69
2023-02-17T16:09:15.764Z,97193.00
2023-02-17T16:11:19.368Z,97199.28
2023-02-17T16:13:21.968Z,97200.81
2023-02-17T16:15:26.007Z,97210.38
2023-02-17T16:17:28.158Z,97213.91
2023-02-17T16:19:29.840Z,97211.44
2023-02-17T16:21:31.404Z,97200.69
2023-02-17T16:23:32.914Z,97205.31
2023-02-17T16:25:36.201Z,97221.91
2023-02-17T16:27:38.417Z,97213.81
2023-02-17T16:29:40.492Z,97210.75
2023-02-17T16:31:42.661Z,97218.38
2023-02-17T16:33:44.304Z,97209.13
2023-02-17T16:35:46.107Z,97210.03
2023-02-17T16:37:52.891Z,97213.84
2023-02-17T16:39:54.658Z,97213.75
2023-02-17T16:41:56.185Z,97210.75
2023-02-17T16:43:57.691Z,97217.34
2023-02-17T16:46:03.133Z,97249.28
2023-02-17T16:48:07.734Z,97222.31
2023-02-17T16:50:18.437Z,97230.69
2023-02-17T16:52:24.825Z,97212.91
2023-02-17T16:54:26.492Z,97222.31
2023-02-17T16:56:35.822Z,97219.63
2023-02-17T16:58:38.931Z,97219.22
2023-02-17T17:00:40.478Z,97205.72
2023-02-17T17:02:42.683Z,97218.81
2023-02-17T17:04:44.240Z,97221.56
2023-02-17T17:06:51.348Z,97231.25
2023-02-17T17:08:53.296Z,97231.88
2023-02-17T17:10:55.065Z,97221.56
2023-02-17T17:12:57.112Z,97228.06
2023-02-17T17:14:58.665Z,97240.06
2023-02-17T17:17:01.619Z,97248.16
2023-02-17T17:19:03.928Z,97235.75
2023-02-17T17:21:05.705Z,97254.69
2023-02-17T17:23:12.513Z,97249.69
2023-02-17T17:25:14.937Z,97238.47
2023-02-17T17:27:16.936Z,97232.66
2023-02-17T17:29:19.594Z,97236.56
2023-02-17T17:31:21.981Z,97230.78
2023-02-17T17:33:23.541Z,97234.94
2023-02-17T17:35:26.389Z,97231.44
2023-02-17T17:37:28.025Z,97233.13
2023-02-17T17:39:29.851Z,97238.13
2023-02-17T17:41:31.654Z,97235.09
2023-02-17T17:43:33.129Z,97259.06
2023-02-17T17:45:34.881Z,97267.91
2023-02-17T17:51:05.654Z,97242.34
2023-02-17T17:53:07.974Z,97260.09
2023-02-17T17:55:09.985Z,97263.19
2023-02-17T17:57:12.699Z,97257.00
2023-02-17T17:59:14.772Z,97271.19
2023-02-17T18:01:36.192Z,97260.84
2023-02-17T18:03:59.524Z,97267.09
2023-02-17T18:06:27.465Z,97269.34
2023-02-17T18:08:51.090Z,97270.91
2023-02-17T18:11:16.895Z,97277.13
2023-02-17T18:13:39.854Z,97292.97
2023-02-17T18:16:02.979Z,97298.34
2023-02-17T18:18:25.357Z,97283.25
2023-02-17T18:23:35.112Z,97292.50
2023-02-17T18:25:57.988Z,97292.59
2023-02-17T18:28:20.060Z,97304.16
2023-02-17T18:30:43.316Z,97295.97
2023-02-17T18:33:05.992Z,97306.41
2023-02-17T18:35:29.148Z,97304.97
2023-02-17T18:37:51.638Z,97302.28
2023-02-17T18:40:16.703Z,97327.34
2023-02-17T18:42:45.383Z,97316.16
2023-02-17T18:45:08.420Z,97323.94
2023-02-17T18:47:30.319Z,97326.25
2023-02-17T18:49:52.559Z,97327.38
2023-02-17T18:52:14.956Z,97325.84
2023-02-17T18:54:42.204Z,97328.63
2023-02-17T18:57:04.189Z,97342.53
2023-02-17T18:59:26.352Z,97338.28
2023-02-17T19:01:48.482Z,97353.66
2023-02-17T19:04:12.842Z,97347.50
2023-02-17T19:06:35.803Z,97342.84
2023-02-17T19:08:57.722Z,97357.53
2023-02-17T19:11:21.464Z,97355.66
2023-02-17T19:13:44.102Z,97349.13
2023-02-17T19:16:15.057Z,97346.72
2023-02-17T19:18:37.921Z,97354.13
2023-02-17T19:20:59.869Z,97362.94
2023-02-17T19:23:21.736Z,97353.66
2023-02-17T19:25:43.586Z,97344.03
2023-02-17T19:28:05.392Z,97363.31
2023-02-17T19:30:27.445Z,97359.84
2023-02-17T19:32:49.309Z,97362.91
2023-02-17T19:35:11.810Z,97369.06
2023-02-17T19:37:34.820Z,97369.88
2023-02-17T19:39:56.967Z,97358.63
2023-02-17T19:42:18.888Z,97369.00
2023-02-17T19:44:40.822Z,97369.75
2023-02-17T19:47:02.728Z,97358.97
2023-02-17T19:49:24.814Z,97352.47
2023-02-17T19:51:46.817Z,97362.16
2023-02-17T19:54:09.011Z,97362.59
2023-02-17T19:56:33.447Z,97361.38
2023-02-17T19:58:56.458Z,97364.47
2023-02-17T20:01:21.531Z,97368.34
2023-02-17T20:03:44.570Z,97364.91
2023-02-17T20:06:09.724Z,97373.00
2023-02-17T20:08:31.925Z,97369.16
2023-02-17T20:10:53.794Z,97372.66
2023-02-17T20:13:15.650Z,97374.91
2023-02-17T20:15:37.560Z,97373.78
2023-02-17T20:17:59.841Z,97378.03
2023-02-17T20:20:22.162Z,97374.94
2023-02-17T20:22:44.011Z,97391.94
2023-02-17T20:25:06.870Z,97387.72
2023-02-17T20:27:28.812Z,97390.00
2023-02-17T20:29:50.700Z,97390.81
2023-02-17T20:32:12.766Z,97388.88
2023-02-17T20:34:40.968Z,97390.34
2023-02-17T20:36:42.432Z,97380.75
2023-02-17T20:38:45.038Z,97379.97
2023-02-17T20:40:46.560Z,97393.06
2023-02-17T20:42:48.128Z,97394.25
2023-02-17T20:44:50.935Z,97389.22
2023-02-17T20:46:53.742Z,97384.22
2023-02-17T20:48:56.423Z,97386.56
2023-02-17T20:50:59.785Z,97391.56
2023-02-17T20:53:02.875Z,97390.44
2023-02-17T20:55:05.576Z,97396.19
2023-02-17T20:57:14.757Z,97386.91
2023-02-17T20:59:16.660Z,97388.50
2023-02-17T21:01:19.834Z,97390.03
2023-02-17T21:03:21.546Z,97398.13
2023-02-17T21:05:24.446Z,97395.44
2023-02-17T21:07:26.100Z,97404.31
2023-02-17T21:09:30.030Z,97403.19
2023-02-17T21:11:33.573Z,97404.28
2023-02-17T21:13:37.298Z,97414.41
2023-02-17T21:15:39.848Z,97415.56
2023-02-17T21:17:43.527Z,97420.25
2023-02-17T21:19:46.043Z,97429.13
2023-02-17T21:21:47.971Z,97406.72
2023-02-17T21:23:50.003Z,97428.69
2023-02-17T21:25:51.611Z,97431.06
2023-02-17T21:27:53.157Z,97436.44
2023-02-17T21:29:54.661Z,97435.28
2023-02-17T21:31:56.316Z,97434.13
2023-02-17T21:33:59.040Z,97442.66
2023-02-17T21:36:05.332Z,97437.25
2023-02-17T21:38:07.327Z,97434.94
2023-02-17T21:40:10.048Z,97443.00
2023-02-17T21:42:11.686Z,97425.66
2023-02-17T21:44:32.504Z,97438.41
2023-02-17T21:46:34.837Z,97438.78
2023-02-17T21:48:38.151Z,97435.31
2023-02-17T21:50:39.687Z,97423.34
2023-02-17T21:52:41.289Z,97418.75
2023-02-17T21:54:42.848Z,97421.41
2023-02-17T21:56:44.656Z,97415.63
2023-02-17T21:58:51.755Z,97406.72
2023-02-17T22:00:53.998Z,97409.03
2023-02-17T22:02:55.556Z,97409.78
2023-02-17T22:04:57.303Z,97408.63
2023-02-17T22:06:58.784Z,97412.47
2023-02-17T22:09:00.946Z,97404.03
2023-02-17T22:11:02.624Z,97400.94
2023-02-17T22:13:04.318Z,97410.53
2023-02-17T22:15:06.841Z,97415.56
2023-02-17T22:17:08.484Z,97417.13
2023-02-17T22:19:15.591Z,97411.69
2023-02-17T22:21:17.872Z,97429.81
2023-02-17T22:23:19.627Z,97434.13
2023-02-17T22:25:21.936Z,97432.56
2023-02-17T22:27:23.459Z,97419.09
2023-02-17T22:29:25.237Z,97431.84
2023-02-17T22:31:29.023Z,97429.09
2023-02-17T22:33:30.916Z,97422.56
2023-02-17T22:35:32.747Z,97419.03
2023-02-17T22:37:34.322Z,97416.00
2023-02-17T22:39:36.018Z,97417.56
2023-02-17T22:41:39.278Z,97421.44
2023-02-17T22:43:42.085Z,97417.13
2023-02-17T22:45:43.888Z,97425.63
2023-02-17T22:47:45.836Z,97421.34
2023-02-17T22:49:47.382Z,97425.22
2023-02-17T22:51:49.441Z,97414.44
2023-02-17T22:53:51.331Z,97420.97
2023-02-17T22:55:57.219Z,97429.50
2023-02-17T22:57:59.078Z,97425.66
2023-02-17T23:00:00.788Z,97425.66
2023-02-17T23:02:02.368Z,97416.00
2023-02-17T23:04:04.863Z,97414.44
2023-02-17T23:06:12.006Z,97412.16
2023-02-17T23:08:13.813Z,97422.53
2023-02-17T23:10:15.472Z,97425.97
2023-02-17T23:12:16.981Z,97417.94
2023-02-17T23:14:22.050Z,97424.09
2023-02-17T23:16:23.628Z,97416.78
2023-02-17T23:18:25.235Z,97413.31
2023-02-17T23:20:26.813Z,97414.06
2023-02-17T23:22:30.943Z,97409.41
2023-02-17T23:24:32.432Z,97417.09
2023-02-17T23:26:33.970Z,97433.34
2023-02-17T23:28:35.719Z,97434.09
2023-02-17T23:30:37.558Z,97440.28
2023-02-17T23:32:39.521Z,97429.50
2023-02-17T23:34:41.021Z,97434.09
2023-02-17T23:36:44.278Z,97442.19
2023-02-17T23:38:46.125Z,97436.75
2023-02-17T23:40:51.944Z,97436.41
2023-02-17T23:42:53.877Z,97430.28
2023-02-17T23:44:55.378Z,97439.50
2023-02-17T23:46:56.957Z,97436.75
2023-02-17T23:48:58.651Z,97430.91
2023-02-17T23:51:03.073Z,97435.59
2023-02-17T23:53:05.257Z,97435.59
2023-02-17T23:55:07.505Z,97432.44
2023-02-17T23:57:09.070Z,97437.50
2023-02-17T23:59:11.714Z,97430.59
